sensor_id;sensor_type;location;lat;lon;timestamp;pressure;altitude;pressure_sealevel;temperature;humidity
57801;BME280;43627;42.728;23.256;2023-07-30T00:00:58;94820.59;;;19.80;100.00
57801;BME280;43627;42.728;23.256;2023-07-30T00:03:25;94824.56;;;19.84;100.00
57801;BME280;43627;42.728;23.256;2023-07-30T00:05:53;94823.91;;;19.78;100.00
57801;BME280;43627;42.728;23.256;2023-07-30T00:08:20;94813.97;;;19.69;100.00
57801;BME280;43627;42.728;23.256;2023-07-30T00:10:47;94814.66;;;19.57;100.00
57801;BME280;43627;42.728;23.256;2023-07-30T00:13:14;94823.53;;;19.68;100.00
57801;BME280;43627;42.728;23.256;2023-07-30T00:15:41;94816.31;;;19.65;100.00
57801;BME280;43627;42.728;23.256;2023-07-30T00:18:07;94814.81;;;19.46;100.00
57801;BME280;43627;42.728;23.256;2023-07-30T00:20:34;94818.91;;;19.39;100.00
57801;BME280;43627;42.728;23.256;2023-07-30T00:23:02;94816.38;;;19.22;100.00
57801;BME280;43627;42.728;23.256;2023-07-30T00:25:29;94826.16;;;19.23;100.00
57801;BME280;43627;42.728;23.256;2023-07-30T00:27:56;94815.41;;;19.20;100.00
57801;BME280;43627;42.728;23.256;2023-07-30T00:30:23;94814.44;;;19.17;100.00
57801;BME280;43627;42.728;23.256;2023-07-30T00:32:49;94811.44;;;19.15;100.00
57801;BME280;43627;42.728;23.256;2023-07-30T00:35:16;94799.19;;;19.10;100.00
57801;BME280;43627;42.728;23.256;2023-07-30T00:37:43;94804.19;;;19.12;100.00
57801;BME280;43627;42.728;23.256;2023-07-30T00:40:10;94808.31;;;19.05;100.00
57801;BME280;43627;42.728;23.256;2023-07-30T00:42:37;94805.69;;;19.13;100.00
57801;BME280;43627;42.728;23.256;2023-07-30T00:45:04;94805.59;;;19.00;100.00
57801;BME280;43627;42.728;23.256;2023-07-30T00:47:31;94804.16;;;18.93;100.00
57801;BME280;43627;42.728;23.256;2023-07-30T00:49:58;94809.78;;;18.88;100.00
57801;BME280;43627;42.728;23.256;2023-07-30T00:52:25;94803.47;;;18.68;100.00
57801;BME280;43627;42.728;23.256;2023-07-30T00:54:53;94805.19;;;18.71;100.00
57801;BME280;43627;42.728;23.256;2023-07-30T00:57:20;94802.34;;;18.52;100.00
57801;BME280;43627;42.728;23.256;2023-07-30T00:59:47;94799.69;;;18.41;100.00
57801;BME280;43627;42.728;23.256;2023-07-30T01:02:14;94805.03;;;18.34;100.00
57801;BME280;43627;42.728;23.256;2023-07-30T01:04:42;94800.31;;;18.28;100.00
57801;BME280;43627;42.728;23.256;2023-07-30T01:07:08;94808.38;;;18.26;100.00
57801;BME280;43627;42.728;23.256;2023-07-30T01:09:35;94810.94;;;18.19;100.00
57801;BME280;43627;42.728;23.256;2023-07-30T01:12:03;94814.84;;;18.05;100.00
57801;BME280;43627;42.728;23.256;2023-07-30T01:14:31;94815.25;;;18.14;100.00
57801;BME280;43627;42.728;23.256;2023-07-30T01:16:59;94814.75;;;18.16;100.00
57801;BME280;43627;42.728;23.256;2023-07-30T01:19:26;94814.19;;;17.93;100.00
57801;BME280;43627;42.728;23.256;2023-07-30T01:21:52;94821.88;;;17.70;100.00
57801;BME280;43627;42.728;23.256;2023-07-30T01:24:19;94818.69;;;17.55;100.00
57801;BME280;43627;42.728;23.256;2023-07-30T01:26:51;94812.66;;;17.56;100.00
57801;BME280;43627;42.728;23.256;2023-07-30T01:29:25;94789.75;;;17.31;100.00
57801;BME280;43627;42.728;23.256;2023-07-30T01:31:57;94808.69;;;17.52;100.00
57801;BME280;43627;42.728;23.256;2023-07-30T01:34:29;94816.94;;;17.57;100.00
57801;BME280;43627;42.728;23.256;2023-07-30T01:36:57;94811.72;;;17.48;100.00
57801;BME280;43627;42.728;23.256;2023-07-30T01:39:25;94820.88;;;17.62;100.00
57801;BME280;43627;42.728;23.256;2023-07-30T01:41:55;94812.06;;;17.69;100.00
57801;BME280;43627;42.728;23.256;2023-07-30T01:44:22;94806.66;;;17.52;100.00
57801;BME280;43627;42.728;23.256;2023-07-30T01:46:48;94818.13;;;17.62;100.00
57801;BME280;43627;42.728;23.256;2023-07-30T01:49:15;94828.34;;;17.78;100.00
57801;BME280;43627;42.728;23.256;2023-07-30T01:51:42;94818.66;;;17.96;100.00
57801;BME280;43627;42.728;23.256;2023-07-30T01:54:08;94816.44;;;17.94;100.00
57801;BME280;43627;42.728;23.256;2023-07-30T01:56:35;94809.44;;;17.88;100.00
57801;BME280;43627;42.728;23.256;2023-07-30T01:59:02;94824.22;;;17.90;100.00
57801;BME280;43627;42.728;23.256;2023-07-30T02:01:29;94816.75;;;17.85;100.00
57801;BME280;43627;42.728;23.256;2023-07-30T02:03:55;94816.53;;;17.83;100.00
57801;BME280;43627;42.728;23.256;2023-07-30T02:06:22;94820.78;;;17.84;100.00
57801;BME280;43627;42.728;23.256;2023-07-30T02:08:49;94819.28;;;17.83;100.00
57801;BME280;43627;42.728;23.256;2023-07-30T02:11:16;94819.00;;;17.87;100.00
57801;BME280;43627;42.728;23.256;2023-07-30T02:13:42;94809.88;;;17.97;100.00
57801;BME280;43627;42.728;23.256;2023-07-30T02:16:09;94810.63;;;17.98;100.00
57801;BME280;43627;42.728;23.256;2023-07-30T02:18:36;94819.13;;;18.00;100.00
57801;BME280;43627;42.728;23.256;2023-07-30T02:21:02;94816.56;;;18.08;100.00
57801;BME280;43627;42.728;23.256;2023-07-30T02:23:29;94822.56;;;18.12;100.00
57801;BME280;43627;42.728;23.256;2023-07-30T02:25:56;94826.75;;;18.18;100.00
57801;BME280;43627;42.728;23.256;2023-07-30T02:28:22;94830.63;;;18.34;100.00
57801;BME280;43627;42.728;23.256;2023-07-30T02:30:49;94827.00;;;18.45;100.00
57801;BME280;43627;42.728;23.256;2023-07-30T02:33:16;94824.44;;;18.52;100.00
57801;BME280;43627;42.728;23.256;2023-07-30T02:35:43;94819.34;;;18.56;100.00
57801;BME280;43627;42.728;23.256;2023-07-30T02:38:10;94839.69;;;18.59;100.00
57801;BME280;43627;42.728;23.256;2023-07-30T02:40:36;94836.66;;;18.57;100.00
57801;BME280;43627;42.728;23.256;2023-07-30T02:43:03;94824.59;;;18.36;100.00
57801;BME280;43627;42.728;23.256;2023-07-30T02:45:30;94832.28;;;18.18;100.00
57801;BME280;43627;42.728;23.256;2023-07-30T02:47:57;94834.44;;;18.01;100.00
57801;BME280;43627;42.728;23.256;2023-07-30T02:50:23;94830.97;;;17.95;100.00
57801;BME280;43627;42.728;23.256;2023-07-30T02:52:50;94837.13;;;17.77;100.00
57801;BME280;43627;42.728;23.256;2023-07-30T02:55:17;94827.88;;;17.68;100.00
57801;BME280;43627;42.728;23.256;2023-07-30T02:57:45;94837.25;;;17.54;100.00
57801;BME280;43627;42.728;23.256;2023-07-30T03:00:12;94832.50;;;17.49;100.00
57801;BME280;43627;42.728;23.256;2023-07-30T03:02:40;94834.00;;;17.50;100.00
57801;BME280;43627;42.728;23.256;2023-07-30T03:05:07;94833.69;;;17.59;100.00
57801;BME280;43627;42.728;23.256;2023-07-30T03:07:35;94831.91;;;17.62;100.00
57801;BME280;43627;42.728;23.256;2023-07-30T03:10:02;94843.19;;;17.69;100.00
57801;BME280;43627;42.728;23.256;2023-07-30T03:12:29;94844.19;;;17.72;100.00
57801;BME280;43627;42.728;23.256;2023-07-30T03:14:55;94823.34;;;17.77;100.00
57801;BME280;43627;42.728;23.256;2023-07-30T03:17:22;94842.88;;;17.79;100.00
57801;BME280;43627;42.728;23.256;2023-07-30T03:19:49;94836.66;;;17.73;100.00
57801;BME280;43627;42.728;23.256;2023-07-30T03:22:15;94837.59;;;17.81;100.00
57801;BME280;43627;42.728;23.256;2023-07-30T03:24:42;94845.84;;;17.81;100.00
57801;BME280;43627;42.728;23.256;2023-07-30T03:27:09;94834.34;;;17.82;100.00
57801;BME280;43627;42.728;23.256;2023-07-30T03:29:36;94840.75;;;17.96;100.00
57801;BME280;43627;42.728;23.256;2023-07-30T03:32:03;94838.19;;;18.04;100.00
57801;BME280;43627;42.728;23.256;2023-07-30T03:34:30;94837.09;;;18.12;100.00
57801;BME280;43627;42.728;23.256;2023-07-30T03:36:56;94843.59;;;18.15;100.00
57801;BME280;43627;42.728;23.256;2023-07-30T03:39:26;94836.06;;;18.15;100.00
57801;BME280;43627;42.728;23.256;2023-07-30T03:41:53;94835.00;;;18.24;100.00
57801;BME280;43627;42.728;23.256;2023-07-30T03:44:20;94842.56;;;18.18;100.00
57801;BME280;43627;42.728;23.256;2023-07-30T03:46:46;94839.22;;;18.31;100.00
57801;BME280;43627;42.728;23.256;2023-07-30T03:49:13;94838.53;;;18.49;100.00
57801;BME280;43627;42.728;23.256;2023-07-30T03:51:40;94849.81;;;18.75;100.00
57801;BME280;43627;42.728;23.256;2023-07-30T03:54:07;94853.25;;;19.06;100.00
57801;BME280;43627;42.728;23.256;2023-07-30T03:56:34;94862.09;;;19.42;100.00
57801;BME280;43627;42.728;23.256;2023-07-30T03:59:01;94857.09;;;19.78;100.00
57801;BME280;43627;42.728;23.256;2023-07-30T04:01:30;94852.53;;;20.00;95.41
57801;BME280;43627;42.728;23.256;2023-07-30T04:03:57;94863.25;;;19.90;94.60
57801;BME280;43627;42.728;23.256;2023-07-30T04:06:24;94853.22;;;19.68;96.23
57801;BME280;43627;42.728;23.256;2023-07-30T04:08:51;94858.84;;;19.44;99.19
57801;BME280;43627;42.728;23.256;2023-07-30T04:11:17;94860.09;;;19.24;100.00
57801;BME280;43627;42.728;23.256;2023-07-30T04:13:44;94868.22;;;19.16;100.00
57801;BME280;43627;42.728;23.256;2023-07-30T04:16:11;94864.59;;;19.02;100.00
57801;BME280;43627;42.728;23.256;2023-07-30T04:18:37;94867.25;;;18.89;100.00
57801;BME280;43627;42.728;23.256;2023-07-30T04:21:04;94871.06;;;18.86;100.00
57801;BME280;43627;42.728;23.256;2023-07-30T04:23:31;94865.81;;;18.82;100.00
57801;BME280;43627;42.728;23.256;2023-07-30T04:25:58;94864.91;;;18.74;100.00
57801;BME280;43627;42.728;23.256;2023-07-30T04:28:24;94874.59;;;18.87;100.00
57801;BME280;43627;42.728;23.256;2023-07-30T04:30:51;94872.25;;;18.91;100.00
57801;BME280;43627;42.728;23.256;2023-07-30T04:33:18;94862.56;;;19.03;100.00
57801;BME280;43627;42.728;23.256;2023-07-30T04:35:44;94872.56;;;19.49;100.00
57801;BME280;43627;42.728;23.256;2023-07-30T04:38:11;94874.34;;;20.03;96.61
57801;BME280;43627;42.728;23.256;2023-07-30T04:40:39;94871.91;;;21.17;88.23
57801;BME280;43627;42.728;23.256;2023-07-30T04:43:05;94878.44;;;22.35;75.97
57801;BME280;43627;42.728;23.256;2023-07-30T04:45:32;94882.78;;;23.57;66.01
57801;BME280;43627;42.728;23.256;2023-07-30T04:47:59;94887.75;;;24.85;57.49
57801;BME280;43627;42.728;23.256;2023-07-30T04:50:26;94879.25;;;26.01;51.89
57801;BME280;43627;42.728;23.256;2023-07-30T04:52:52;94881.88;;;27.07;48.04
57801;BME280;43627;42.728;23.256;2023-07-30T04:55:19;94882.81;;;27.44;46.35
57801;BME280;43627;42.728;23.256;2023-07-30T04:57:46;94866.41;;;27.75;44.57
57801;BME280;43627;42.728;23.256;2023-07-30T05:00:13;94887.09;;;27.62;45.22
57801;BME280;43627;42.728;23.256;2023-07-30T05:02:39;94874.38;;;27.09;45.77
57801;BME280;43627;42.728;23.256;2023-07-30T05:05:06;94878.53;;;27.00;45.89
57801;BME280;43627;42.728;23.256;2023-07-30T05:07:33;94892.56;;;26.75;47.12
57801;BME280;43627;42.728;23.256;2023-07-30T05:10:00;94876.13;;;26.80;46.42
57801;BME280;43627;42.728;23.256;2023-07-30T05:12:26;94865.81;;;26.40;47.02
57801;BME280;43627;42.728;23.256;2023-07-30T05:14:53;94865.44;;;26.03;47.76
57801;BME280;43627;42.728;23.256;2023-07-30T05:17:20;94880.47;;;26.48;46.29
57801;BME280;43627;42.728;23.256;2023-07-30T05:19:46;94881.06;;;26.89;45.69
57801;BME280;43627;42.728;23.256;2023-07-30T05:22:13;94870.28;;;27.10;44.53
57801;BME280;43627;42.728;23.256;2023-07-30T05:24:40;94891.56;;;26.63;45.81
57801;BME280;43627;42.728;23.256;2023-07-30T05:27:07;94871.69;;;26.19;46.49
57801;BME280;43627;42.728;23.256;2023-07-30T05:29:34;94875.41;;;25.89;47.09
57801;BME280;43627;42.728;23.256;2023-07-30T05:32:00;94873.34;;;25.89;47.60
57801;BME280;43627;42.728;23.256;2023-07-30T05:34:27;94876.03;;;25.64;47.55
57801;BME280;43627;42.728;23.256;2023-07-30T05:36:54;94880.09;;;25.00;49.77
57801;BME280;43627;42.728;23.256;2023-07-30T05:39:20;94883.84;;;25.03;50.40
57801;BME280;43627;42.728;23.256;2023-07-30T05:41:47;94888.13;;;25.04;51.16
57801;BME280;43627;42.728;23.256;2023-07-30T05:44:14;94882.13;;;25.15;51.06
57801;BME280;43627;42.728;23.256;2023-07-30T05:46:40;94892.88;;;25.42;50.18
57801;BME280;43627;42.728;23.256;2023-07-30T05:49:07;94887.88;;;25.40;50.92
57801;BME280;43627;42.728;23.256;2023-07-30T05:51:33;94888.69;;;25.66;49.29
57801;BME280;43627;42.728;23.256;2023-07-30T05:54:00;94881.63;;;25.72;48.24
57801;BME280;43627;42.728;23.256;2023-07-30T05:56:27;94894.34;;;25.43;48.75
57801;BME280;43627;42.728;23.256;2023-07-30T05:58:54;94895.91;;;25.05;49.60
57801;BME280;43627;42.728;23.256;2023-07-30T06:01:20;94886.06;;;25.12;51.40
57801;BME280;43627;42.728;23.256;2023-07-30T06:03:47;94892.75;;;25.17;50.75
57801;BME280;43627;42.728;23.256;2023-07-30T06:06:14;94890.84;;;25.27;51.38
57801;BME280;43627;42.728;23.256;2023-07-30T06:08:41;94894.75;;;25.31;50.83
57801;BME280;43627;42.728;23.256;2023-07-30T06:11:07;94896.00;;;25.46;50.33
57801;BME280;43627;42.728;23.256;2023-07-30T06:13:34;94896.16;;;25.63;49.01
57801;BME280;43627;42.728;23.256;2023-07-30T06:16:01;94894.88;;;25.56;50.14
57801;BME280;43627;42.728;23.256;2023-07-30T06:18:28;94881.59;;;25.80;48.84
57801;BME280;43627;42.728;23.256;2023-07-30T06:20:55;94895.94;;;25.69;51.10
57801;BME280;43627;42.728;23.256;2023-07-30T06:23:21;94884.72;;;25.84;49.90
57801;BME280;43627;42.728;23.256;2023-07-30T06:25:48;94893.22;;;26.01;48.81
57801;BME280;43627;42.728;23.256;2023-07-30T06:28:15;94883.78;;;25.89;48.50
57801;BME280;43627;42.728;23.256;2023-07-30T06:30:41;94891.16;;;26.02;48.88
57801;BME280;43627;42.728;23.256;2023-07-30T06:33:08;94882.75;;;26.09;48.58
57801;BME280;43627;42.728;23.256;2023-07-30T06:35:35;94877.81;;;26.25;47.78
57801;BME280;43627;42.728;23.256;2023-07-30T06:38:01;94871.78;;;26.36;47.14
57801;BME280;43627;42.728;23.256;2023-07-30T06:40:28;94868.56;;;26.47;47.30
57801;BME280;43627;42.728;23.256;2023-07-30T06:42:55;94867.06;;;26.46;46.70
57801;BME280;43627;42.728;23.256;2023-07-30T06:45:21;94864.44;;;26.73;45.88
57801;BME280;43627;42.728;23.256;2023-07-30T06:47:48;94852.63;;;26.83;46.04
57801;BME280;43627;42.728;23.256;2023-07-30T06:50:15;94858.84;;;26.91;46.03
57801;BME280;43627;42.728;23.256;2023-07-30T06:52:42;94864.81;;;26.70;46.14
57801;BME280;43627;42.728;23.256;2023-07-30T06:55:09;94859.53;;;26.82;47.04
57801;BME280;43627;42.728;23.256;2023-07-30T06:57:35;94845.59;;;26.74;45.43
57801;BME280;43627;42.728;23.256;2023-07-30T07:00:02;94858.59;;;26.79;45.71
57801;BME280;43627;42.728;23.256;2023-07-30T07:02:29;94847.75;;;27.00;44.75
57801;BME280;43627;42.728;23.256;2023-07-30T07:04:56;94849.72;;;26.90;45.07
57801;BME280;43627;42.728;23.256;2023-07-30T07:07:23;94852.25;;;26.79;45.04
57801;BME280;43627;42.728;23.256;2023-07-30T07:09:50;94847.34;;;26.87;44.53
57801;BME280;43627;42.728;23.256;2023-07-30T07:12:16;94854.63;;;27.07;44.63
57801;BME280;43627;42.728;23.256;2023-07-30T07:14:43;94834.75;;;27.20;43.77
57801;BME280;43627;42.728;23.256;2023-07-30T07:17:10;94833.41;;;27.21;44.23
57801;BME280;43627;42.728;23.256;2023-07-30T07:19:36;94833.41;;;27.04;44.44
57801;BME280;43627;42.728;23.256;2023-07-30T07:22:04;94843.97;;;27.30;43.78
57801;BME280;43627;42.728;23.256;2023-07-30T07:24:31;94835.78;;;27.42;43.11
57801;BME280;43627;42.728;23.256;2023-07-30T07:26:58;94843.69;;;27.36;42.86
57801;BME280;43627;42.728;23.256;2023-07-30T07:29:24;94831.06;;;27.62;42.73
57801;BME280;43627;42.728;23.256;2023-07-30T07:31:51;94823.75;;;27.67;42.45
57801;BME280;43627;42.728;23.256;2023-07-30T07:34:18;94822.13;;;27.91;42.52
57801;BME280;43627;42.728;23.256;2023-07-30T07:36:45;94816.97;;;28.24;42.39
57801;BME280;43627;42.728;23.256;2023-07-30T07:39:11;94828.44;;;28.35;41.34
57801;BME280;43627;42.728;23.256;2023-07-30T07:41:38;94830.59;;;28.64;40.35
57801;BME280;43627;42.728;23.256;2023-07-30T07:44:05;94821.53;;;28.46;39.81
57801;BME280;43627;42.728;23.256;2023-07-30T07:46:32;94817.72;;;27.87;40.88
57801;BME280;43627;42.728;23.256;2023-07-30T07:48:59;94820.28;;;28.03;40.78
57801;BME280;43627;42.728;23.256;2023-07-30T07:51:26;94822.25;;;28.10;40.38
57801;BME280;43627;42.728;23.256;2023-07-30T07:53:53;94823.09;;;28.30;40.35
57801;BME280;43627;42.728;23.256;2023-07-30T07:56:19;94824.53;;;28.58;39.57
57801;BME280;43627;42.728;23.256;2023-07-30T07:58:47;94815.69;;;28.71;39.22
57801;BME280;43627;42.728;23.256;2023-07-30T08:01:13;94805.28;;;28.91;39.47
57801;BME280;43627;42.728;23.256;2023-07-30T08:03:40;94808.84;;;29.11;39.22
57801;BME280;43627;42.728;23.256;2023-07-30T08:06:07;94807.22;;;29.17;38.35
57801;BME280;43627;42.728;23.256;2023-07-30T08:08:33;94812.56;;;29.42;37.79
57801;BME280;43627;42.728;23.256;2023-07-30T08:11:07;94803.97;;;29.11;37.89
57801;BME280;43627;42.728;23.256;2023-07-30T08:13:35;94801.75;;;28.90;38.26
57801;BME280;43627;42.728;23.256;2023-07-30T08:16:02;94799.91;;;28.76;38.23
57801;BME280;43627;42.728;23.256;2023-07-30T08:18:29;94800.06;;;28.87;38.44
57801;BME280;43627;42.728;23.256;2023-07-30T08:20:56;94798.72;;;28.69;38.65
57801;BME280;43627;42.728;23.256;2023-07-30T08:23:22;94799.81;;;28.93;37.83
57801;BME280;43627;42.728;23.256;2023-07-30T08:25:49;94789.34;;;28.93;38.24
57801;BME280;43627;42.728;23.256;2023-07-30T08:28:17;94795.88;;;28.59;38.61
57801;BME280;43627;42.728;23.256;2023-07-30T08:30:44;94794.75;;;28.82;38.96
57801;BME280;43627;42.728;23.256;2023-07-30T08:33:11;94781.22;;;29.36;38.20
57801;BME280;43627;42.728;23.256;2023-07-30T08:35:38;94794.09;;;29.58;37.11
57801;BME280;43627;42.728;23.256;2023-07-30T08:38:04;94782.28;;;30.01;36.78
57801;BME280;43627;42.728;23.256;2023-07-30T08:40:31;94776.59;;;30.30;36.54
57801;BME280;43627;42.728;23.256;2023-07-30T08:42:58;94781.25;;;30.16;36.29
57801;BME280;43627;42.728;23.256;2023-07-30T08:45:25;94773.28;;;29.93;36.53
57801;BME280;43627;42.728;23.256;2023-07-30T08:47:51;94775.81;;;29.98;36.67
57801;BME280;43627;42.728;23.256;2023-07-30T08:50:19;94768.75;;;29.88;36.70
57801;BME280;43627;42.728;23.256;2023-07-30T08:52:46;94772.16;;;29.86;35.79
57801;BME280;43627;42.728;23.256;2023-07-30T08:55:15;94773.03;;;29.89;35.78
57801;BME280;43627;42.728;23.256;2023-07-30T08:57:43;94770.63;;;30.04;35.36
57801;BME280;43627;42.728;23.256;2023-07-30T09:00:15;94758.75;;;30.06;35.60
57801;BME280;43627;42.728;23.256;2023-07-30T09:02:49;94765.75;;;29.95;36.13
57801;BME280;43627;42.728;23.256;2023-07-30T09:05:19;94747.41;;;29.94;37.05
57801;BME280;43627;42.728;23.256;2023-07-30T09:07:46;94753.50;;;29.81;36.39
57801;BME280;43627;42.728;23.256;2023-07-30T09:10:14;94765.06;;;29.85;36.06
57801;BME280;43627;42.728;23.256;2023-07-30T09:12:41;94753.88;;;30.06;35.72
57801;BME280;43627;42.728;23.256;2023-07-30T09:15:08;94758.88;;;30.18;35.45
57801;BME280;43627;42.728;23.256;2023-07-30T09:17:35;94748.59;;;30.32;35.97
57801;BME280;43627;42.728;23.256;2023-07-30T09:20:03;94754.56;;;30.26;35.44
57801;BME280;43627;42.728;23.256;2023-07-30T09:22:33;94760.13;;;30.36;34.45
57801;BME280;43627;42.728;23.256;2023-07-30T09:25:02;94760.38;;;30.19;33.75
57801;BME280;43627;42.728;23.256;2023-07-30T09:27:31;94757.50;;;30.28;33.44
57801;BME280;43627;42.728;23.256;2023-07-30T09:29:59;94745.16;;;30.43;33.66
57801;BME280;43627;42.728;23.256;2023-07-30T09:32:31;94739.78;;;30.47;33.69
57801;BME280;43627;42.728;23.256;2023-07-30T09:35:08;94747.09;;;30.72;33.07
57801;BME280;43627;42.728;23.256;2023-07-30T09:37:40;94736.56;;;30.93;32.15
57801;BME280;43627;42.728;23.256;2023-07-30T09:40:12;94733.72;;;31.15;32.67
57801;BME280;43627;42.728;23.256;2023-07-30T09:42:47;94744.66;;;31.20;32.73
57801;BME280;43627;42.728;23.256;2023-07-30T09:45:21;94723.47;;;31.19;31.45
57801;BME280;43627;42.728;23.256;2023-07-30T09:47:48;94727.19;;;31.34;31.31
57801;BME280;43627;42.728;23.256;2023-07-30T09:50:15;94722.06;;;31.30;31.53
57801;BME280;43627;42.728;23.256;2023-07-30T09:52:42;94721.13;;;30.94;31.88
57801;BME280;43627;42.728;23.256;2023-07-30T09:55:10;94718.00;;;31.33;31.40
57801;BME280;43627;42.728;23.256;2023-07-30T09:57:37;94723.00;;;31.56;31.49
57801;BME280;43627;42.728;23.256;2023-07-30T10:00:06;94723.13;;;31.58;31.67
57801;BME280;43627;42.728;23.256;2023-07-30T10:02:37;94692.84;;;31.70;31.02
57801;BME280;43627;42.728;23.256;2023-07-30T10:05:11;94701.66;;;31.65;30.16
57801;BME280;43627;42.728;23.256;2023-07-30T10:07:53;94704.47;;;31.65;30.59
57801;BME280;43627;42.728;23.256;2023-07-30T10:10:24;94702.91;;;31.73;30.09
57801;BME280;43627;42.728;23.256;2023-07-30T10:12:52;94701.13;;;31.78;29.67
57801;BME280;43627;42.728;23.256;2023-07-30T10:15:20;94692.44;;;31.97;30.03
57801;BME280;43627;42.728;23.256;2023-07-30T10:17:51;94691.69;;;31.97;30.03
57801;BME280;43627;42.728;23.256;2023-07-30T10:20:28;94683.09;;;31.83;30.57
57801;BME280;43627;42.728;23.256;2023-07-30T10:23:00;94678.94;;;31.84;29.49
57801;BME280;43627;42.728;23.256;2023-07-30T10:28:08;94685.81;;;32.16;29.65
57801;BME280;43627;42.728;23.256;2023-07-30T10:30:35;94671.44;;;32.24;29.01
57801;BME280;43627;42.728;23.256;2023-07-30T10:33:04;94676.72;;;32.29;29.72
57801;BME280;43627;42.728;23.256;2023-07-30T10:35:45;94671.56;;;32.26;29.71
57801;BME280;43627;42.728;23.256;2023-07-30T10:38:22;94669.75;;;32.07;29.35
57801;BME280;43627;42.728;23.256;2023-07-30T10:41:07;94670.84;;;32.14;29.71
57801;BME280;43627;42.728;23.256;2023-07-30T10:46:10;94655.88;;;32.34;29.13
57801;BME280;43627;42.728;23.256;2023-07-30T10:48:39;94662.25;;;32.11;30.44
57801;BME280;43627;42.728;23.256;2023-07-30T10:51:09;94645.31;;;32.11;29.17
57801;BME280;43627;42.728;23.256;2023-07-30T10:53:36;94642.03;;;31.92;29.23
57801;BME280;43627;42.728;23.256;2023-07-30T10:56:04;94643.88;;;31.75;29.39
57801;BME280;43627;42.728;23.256;2023-07-30T10:58:32;94641.13;;;31.54;30.25
57801;BME280;43627;42.728;23.256;2023-07-30T11:01:01;94634.97;;;31.46;29.95
57801;BME280;43627;42.728;23.256;2023-07-30T11:03:29;94627.66;;;31.64;30.90
57801;BME280;43627;42.728;23.256;2023-07-30T11:05:57;94627.09;;;31.89;29.84
57801;BME280;43627;42.728;23.256;2023-07-30T11:08:41;94629.13;;;32.12;29.97
57801;BME280;43627;42.728;23.256;2023-07-30T11:11:09;94615.66;;;32.22;29.53
57801;BME280;43627;42.728;23.256;2023-07-30T11:16:08;94610.78;;;31.88;30.05
57801;BME280;43627;42.728;23.256;2023-07-30T11:18:37;94609.19;;;31.85;30.85
57801;BME280;43627;42.728;23.256;2023-07-30T11:21:12;94604.38;;;32.34;29.24
57801;BME280;43627;42.728;23.256;2023-07-30T11:23:40;94605.22;;;32.36;29.28
57801;BME280;43627;42.728;23.256;2023-07-30T11:26:12;94593.56;;;32.30;28.96
57801;BME280;43627;42.728;23.256;2023-07-30T11:28:39;94596.53;;;32.32;28.66
57801;BME280;43627;42.728;23.256;2023-07-30T11:31:12;94590.16;;;32.08;29.18
57801;BME280;43627;42.728;23.256;2023-07-30T11:33:44;94589.78;;;32.02;29.26
57801;BME280;43627;42.728;23.256;2023-07-30T11:36:22;94590.81;;;31.95;29.30
57801;BME280;43627;42.728;23.256;2023-07-30T11:38:51;94580.53;;;31.76;29.48
57801;BME280;43627;42.728;23.256;2023-07-30T11:41:23;94590.06;;;31.83;29.54
57801;BME280;43627;42.728;23.256;2023-07-30T11:43:51;94576.84;;;31.86;30.64
57801;BME280;43627;42.728;23.256;2023-07-30T11:46:18;94571.53;;;31.92;29.55
57801;BME280;43627;42.728;23.256;2023-07-30T11:48:48;94572.22;;;32.27;29.21
57801;BME280;43627;42.728;23.256;2023-07-30T11:51:28;94562.53;;;32.19;30.06
57801;BME280;43627;42.728;23.256;2023-07-30T11:53:56;94558.72;;;32.37;29.28
57801;BME280;43627;42.728;23.256;2023-07-30T11:56:28;94569.63;;;32.68;29.50
57801;BME280;43627;42.728;23.256;2023-07-30T11:59:04;94567.44;;;32.30;29.14
57801;BME280;43627;42.728;23.256;2023-07-30T12:01:33;94558.03;;;32.02;29.11
57801;BME280;43627;42.728;23.256;2023-07-30T12:04:03;94557.53;;;32.17;29.08
57801;BME280;43627;42.728;23.256;2023-07-30T12:09:16;94539.84;;;32.65;29.62
57801;BME280;43627;42.728;23.256;2023-07-30T12:11:54;94526.44;;;32.40;28.97
57801;BME280;43627;42.728;23.256;2023-07-30T12:14:26;94533.78;;;32.46;29.82
57801;BME280;43627;42.728;23.256;2023-07-30T12:16:57;94531.19;;;32.13;28.83
57801;BME280;43627;42.728;23.256;2023-07-30T12:19:24;94528.69;;;32.30;29.24
57801;BME280;43627;42.728;23.256;2023-07-30T12:21:51;94512.84;;;32.62;28.85
57801;BME280;43627;42.728;23.256;2023-07-30T12:24:18;94514.22;;;32.61;28.89
57801;BME280;43627;42.728;23.256;2023-07-30T12:26:45;94503.69;;;33.01;29.19
57801;BME280;43627;42.728;23.256;2023-07-30T12:29:12;94513.53;;;33.14;28.88
57801;BME280;43627;42.728;23.256;2023-07-30T12:31:38;94510.63;;;33.25;29.07
57801;BME280;43627;42.728;23.256;2023-07-30T12:34:06;94504.31;;;33.66;28.18
57801;BME280;43627;42.728;23.256;2023-07-30T12:36:32;94507.22;;;33.82;27.25
57801;BME280;43627;42.728;23.256;2023-07-30T12:38:59;94507.19;;;32.88;28.12
57801;BME280;43627;42.728;23.256;2023-07-30T12:41:26;94509.75;;;32.70;28.82
57801;BME280;43627;42.728;23.256;2023-07-30T12:43:53;94504.00;;;32.43;29.28
57801;BME280;43627;42.728;23.256;2023-07-30T12:46:21;94503.03;;;32.26;29.30
57801;BME280;43627;42.728;23.256;2023-07-30T12:48:48;94501.59;;;32.25;29.26
57801;BME280;43627;42.728;23.256;2023-07-30T12:51:15;94497.09;;;32.46;28.77
57801;BME280;43627;42.728;23.256;2023-07-30T12:53:41;94487.69;;;32.29;29.76
57801;BME280;43627;42.728;23.256;2023-07-30T12:56:08;94491.41;;;32.57;29.37
57801;BME280;43627;42.728;23.256;2023-07-30T12:58:35;94457.69;;;32.73;29.27